Time;durP1;ratioP1;P1;durP2;ratioP2;P2;SDS_P1;SDS_P2;PMS_P1;PMS_P2;Temp;Humidity;BMP_temperature;BMP_pressure;BME280_temperature;BME280_humidity;BME280_pressure;Samples;Min_cycle;Max_cycle;Signal;HPM_P1;HPM_P2
2023/03/20 00:01:28;;;;;;;;;33.25;33.00;;;;;8.24;100.00;101732.38;5081542;27;45417;-75
2023/03/20 00:03:55;;;;;;;;;33.25;30.75;;;;;8.27;100.00;101740.91;5081926;27;45474;-75
2023/03/20 00:06:23;;;;;;;;;31.00;27.75;;;;;8.30;100.00;101739.78;5080067;28;45664;-75
2023/03/20 00:08:50;;;;;;;;;27.50;25.75;;;;;8.23;100.00;101730.72;5081634;27;45429;-75
2023/03/20 00:11:35;;;;;;;;;31.00;28.25;;;;;8.26;100.00;101735.75;5080934;27;45304;-75
2023/03/20 00:14:05;;;;;;;;;31.50;30.50;;;;;8.25;100.00;101739.34;5081578;27;45278;-75
2023/03/20 00:16:35;;;;;;;;;32.50;31.00;;;;;8.14;100.00;101737.66;5080053;28;46995;-75
2023/03/20 00:19:02;;;;;;;;;30.50;30.50;;;;;8.16;100.00;101751.56;5080077;28;45937;-75
2023/03/20 00:21:27;;;;;;;;;33.00;29.50;;;;;8.13;100.00;101735.94;5081178;27;45283;-75
2023/03/20 00:23:53;;;;;;;;;30.00;30.00;;;;;8.11;100.00;101736.09;5080042;28;45385;-75
2023/03/20 00:26:24;;;;;;;;;32.00;30.75;;;;;8.09;100.00;101738.03;5079588;28;46774;-74
2023/03/20 00:28:50;;;;;;;;;25.25;25.00;;;;;8.11;100.00;101748.50;5081167;27;46444;-75
2023/03/20 00:31:25;;;;;;;;;33.75;31.25;;;;;8.13;100.00;101763.28;5079350;28;45385;-75
2023/03/20 00:33:53;;;;;;;;;34.75;29.50;;;;;8.08;100.00;101768.13;5081440;27;45244;-75
2023/03/20 00:36:19;;;;;;;;;32.50;28.50;;;;;8.01;100.00;101764.34;5080664;27;45408;-75
2023/03/20 00:38:45;;;;;;;;;26.50;24.00;;;;;8.02;100.00;101787.22;5078577;28;47787;-75
2023/03/20 00:41:21;;;;;;;;;26.25;25.25;;;;;7.98;100.00;101785.78;5080678;28;45442;-75
2023/03/20 00:43:49;;;;;;;;;30.25;28.50;;;;;7.93;100.00;101770.31;5080772;27;45302;-75
2023/03/20 00:46:15;;;;;;;;;30.75;29.00;;;;;7.86;100.00;101759.38;5080964;27;45738;-75
2023/03/20 00:48:42;;;;;;;;;28.00;23.50;;;;;7.83;100.00;101759.66;5080724;28;46392;-75
2023/03/20 00:51:08;;;;;;;;;29.25;26.50;;;;;7.79;100.00;101752.94;5080956;27;45237;-75
2023/03/20 00:53:33;;;;;;;;;28.25;26.25;;;;;7.79;100.00;101756.44;5080107;27;45377;-75
2023/03/20 00:55:59;;;;;;;;;24.75;24.75;;;;;7.83;100.00;101757.84;5080872;27;45276;-76
2023/03/20 00:58:25;;;;;;;;;23.75;23.75;;;;;7.83;100.00;101762.28;5079301;27;47551;-75
2023/03/20 01:00:51;;;;;;;;;24.50;22.00;;;;;7.78;100.00;101753.94;5079678;28;45442;-75
2023/03/20 01:03:21;;;;;;;;;28.00;26.50;;;;;7.78;100.00;101761.88;5079364;28;45515;-75
2023/03/20 01:05:48;;;;;;;;;25.00;22.00;;;;;7.78;100.00;101757.41;5080621;27;45574;-75
2023/03/20 01:08:19;;;;;;;;;27.25;25.50;;;;;7.74;100.00;101763.91;5079317;28;48205;-75
2023/03/20 01:10:47;;;;;;;;;31.00;28.25;;;;;7.76;100.00;101772.59;5068959;28;45804;-75
2023/03/20 01:13:25;;;;;;;;;31.75;30.75;;;;;7.77;100.00;101768.09;5077598;28;45361;-75
2023/03/20 01:15:54;;;;;;;;;28.50;28.50;;;;;7.72;100.00;101770.31;5079289;28;47205;-75
2023/03/20 01:18:21;;;;;;;;;27.50;27.50;;;;;7.70;100.00;101752.75;5080403;27;45219;-75
2023/03/20 01:20:47;;;;;;;;;31.75;29.75;;;;;7.70;100.00;101758.03;5093523;27;45459;-75
2023/03/20 01:23:13;;;;;;;;;32.75;32.25;;;;;7.64;100.00;101752.44;5079369;27;45387;-75
2023/03/20 01:25:39;;;;;;;;;29.25;28.25;;;;;7.61;100.00;101747.41;5080151;27;45389;-75
2023/03/20 01:28:20;;;;;;;;;32.25;31.75;;;;;7.57;100.00;101752.94;5078608;28;48352;-75
2023/03/20 01:30:46;;;;;;;;;33.75;30.75;;;;;7.63;100.00;101759.53;5074176;28;45266;-75
2023/03/20 01:33:18;;;;;;;;;27.50;27.50;;;;;7.59;100.00;101768.69;5079052;28;45311;-75
2023/03/20 01:35:44;;;;;;;;;31.00;30.50;;;;;7.51;100.00;101752.66;5078662;28;47430;-75
2023/03/20 01:38:24;;;;;;;;;35.00;35.00;;;;;7.51;100.00;101758.75;5080407;27;45277;-75
2023/03/20 01:41:00;;;;;;;;;32.00;32.00;;;;;7.45;100.00;101762.75;5079462;27;45372;-75
2023/03/20 01:43:27;;;;;;;;;32.75;32.50;;;;;7.47;100.00;101761.78;5080205;27;45425;-75
2023/03/20 01:46:05;;;;;;;;;37.00;33.00;;;;;7.60;100.00;101761.63;5066288;27;45471;-75
2023/03/20 01:48:48;;;;;;;;;32.00;29.25;;;;;7.62;100.00;101759.66;5079663;27;45218;-75
2023/03/20 01:51:14;;;;;;;;;35.50;31.25;;;;;7.53;100.00;101751.53;5079752;28;45291;-75
2023/03/20 01:53:39;;;;;;;;;34.50;33.50;;;;;7.53;100.00;101755.97;5078616;28;45323;-75
2023/03/20 01:56:05;;;;;;;;;28.00;27.25;;;;;7.51;100.00;101758.75;5080111;27;45241;-75
2023/03/20 01:58:37;;;;;;;;;30.75;30.25;;;;;7.54;100.00;101755.03;5078207;28;48196;-75
2023/03/20 02:01:06;;;;;;;;;40.00;34.00;;;;;7.50;100.00;101753.59;5078628;27;45885;-75
2023/03/20 02:03:32;;;;;;;;;32.75;31.00;;;;;7.49;100.00;101750.13;5079877;27;45263;-75
2023/03/20 02:05:58;;;;;;;;;34.00;30.00;;;;;7.51;100.00;101750.00;5068994;28;45297;-75
2023/03/20 02:08:35;;;;;;;;;25.25;25.25;;;;;7.49;100.00;101758.06;5077347;28;45629;-75
2023/03/20 02:11:01;;;;;;;;;35.00;30.50;;;;;7.51;100.00;101757.94;5079499;27;45430;-75
2023/03/20 02:13:29;;;;;;;;;27.00;25.00;;;;;7.49;100.00;101757.22;5079719;27;45490;-75
2023/03/20 02:16:01;;;;;;;;;27.75;27.75;;;;;7.49;100.00;101750.13;5079723;27;45453;-75
2023/03/20 02:18:26;;;;;;;;;28.00;28.00;;;;;7.43;100.00;101743.53;5079517;28;46415;-75
2023/03/20 02:21:20;;;;;;;;;32.50;28.25;;;;;7.43;100.00;101745.34;5078008;28;45839;-75
2023/03/20 02:23:54;;;;;;;;;27.50;26.50;;;;;7.40;100.00;101742.97;5079664;28;45485;-75
2023/03/20 02:26:55;;;;;;;;;29.00;26.75;;;;;7.33;100.00;101738.19;5077651;28;47734;-75
2023/03/20 02:29:50;;;;;;;;;26.25;24.50;;;;;7.31;100.00;101737.44;5063128;28;46169;-75
2023/03/20 02:32:24;;;;;;;;;25.50;23.25;;;;;7.27;100.00;101735.22;5072989;28;45272;-75
2023/03/20 02:35:31;;;;;;;;;26.75;26.00;;;;;7.32;100.00;101740.94;5077995;28;45370;-74
2023/03/20 02:38:15;;;;;;;;;30.50;28.75;;;;;7.27;100.00;101736.03;5079391;27;45334;-74
2023/03/20 02:40:59;;;;;;;;;28.50;25.25;;;;;7.31;100.00;101739.28;5078496;28;45175;-75
2023/03/20 02:43:42;;;;;;;;;25.25;25.25;;;;;7.12;100.00;101732.84;5079541;28;45250;-75
2023/03/20 02:46:13;;;;;;;;;27.75;27.00;;;;;7.17;100.00;101738.63;5079348;27;45466;-75
2023/03/20 02:48:38;;;;;;;;;27.75;25.00;;;;;7.20;100.00;101738.38;5078955;28;45394;-74
2023/03/20 02:51:16;;;;;;;;;28.25;27.75;;;;;7.20;100.00;101738.38;5079156;27;46076;-75
2023/03/20 02:53:59;;;;;;;;;28.50;24.50;;;;;7.18;100.00;101747.38;5077745;28;45329;-75
2023/03/20 02:56:34;;;;;;;;;29.25;28.75;;;;;7.13;100.00;101742.50;5079251;27;45480;-75
2023/03/20 02:59:32;;;;;;;;;30.75;28.75;;;;;7.03;100.00;101721.25;5064747;28;47371;-74
2023/03/20 03:02:06;;;;;;;;;39.00;34.75;;;;;7.04;100.00;101740.59;5075087;28;46148;-75
2023/03/20 03:04:38;;;;;;;;;35.25;30.25;;;;;7.07;100.00;101748.28;5081290;28;45449;-75
2023/03/20 03:07:08;;;;;;;;;36.75;34.00;;;;;7.01;100.00;101732.91;5082441;28;45231;-75
2023/03/20 03:09:36;;;;;;;;;30.50;30.50;;;;;7.02;100.00;101743.38;5082499;28;45414;-75
2023/03/20 03:12:09;;;;;;;;;31.75;31.50;;;;;7.00;100.00;101739.19;5082586;27;45284;-75
2023/03/20 03:14:48;;;;;;;;;34.50;31.25;;;;;6.95;100.00;101729.78;5082554;27;45622;-74
2023/03/20 03:17:16;;;;;;;;;35.50;33.00;;;;;7.01;100.00;101743.50;5081269;28;45442;-74
2023/03/20 03:19:47;;;;;;;;;36.00;34.25;;;;;6.99;100.00;101738.31;5068420;28;45640;-75
2023/03/20 03:22:14;;;;;;;;;28.75;27.00;;;;;6.96;100.00;101735.94;5082353;27;45967;-75
2023/03/20 03:24:48;;;;;;;;;33.75;33.50;;;;;6.95;100.00;101727.16;5079904;28;45959;-75
2023/03/20 03:27:40;;;;;;;;;25.25;23.25;;;;;6.97;100.00;101732.31;5082107;27;45476;-74
2023/03/20 03:30:09;;;;;;;;;29.00;25.50;;;;;6.95;100.00;101723.69;5072653;27;45255;-74
2023/03/20 03:32:43;;;;;;;;;33.75;30.25;;;;;6.93;100.00;101726.47;5091998;27;45571;-74
2023/03/20 03:35:15;;;;;;;;;31.25;30.00;;;;;6.92;100.00;101727.41;5080791;28;45386;-75
2023/03/20 03:38:19;;;;;;;;;29.25;26.75;;;;;6.89;100.00;101718.91;5082227;28;46622;-75
2023/03/20 03:40:58;;;;;;;;;34.00;31.25;;;;;6.88;100.00;101725.16;5081656;28;45328;-74
2023/03/20 03:43:37;;;;;;;;;28.75;28.75;;;;;6.86;100.00;101719.16;5080480;28;48164;-75
2023/03/20 03:46:08;;;;;;;;;29.50;29.25;;;;;6.92;100.00;101723.94;5082156;27;45525;-75
2023/03/20 03:48:50;;;;;;;;;36.00;31.50;;;;;6.88;100.00;101714.59;5080755;28;45351;-75
2023/03/20 03:51:22;;;;;;;;;28.00;26.25;;;;;6.93;100.00;101725.59;5081885;27;45223;-75
2023/03/20 03:53:56;;;;;;;;;33.75;29.00;;;;;6.91;100.00;101719.59;5081443;28;45508;-75
2023/03/20 03:56:25;;;;;;;;;28.75;28.00;;;;;6.92;100.00;101730.03;5080425;28;45346;-75
2023/03/20 03:58:55;;;;;;;;;33.75;29.75;;;;;6.92;100.00;101726.59;5081489;27;45241;-75
2023/03/20 04:01:26;;;;;;;;;34.50;31.50;;;;;6.98;100.00;101726.09;5081904;28;45320;-75
2023/03/20 04:03:55;;;;;;;;;33.00;30.75;;;;;6.90;100.00;101728.50;5081547;27;45275;-75
2023/03/20 04:06:21;;;;;;;;;30.00;28.75;;;;;6.87;100.00;101716.38;5081445;27;45282;-75
2023/03/20 04:08:46;;;;;;;;;32.75;30.25;;;;;6.88;100.00;101715.41;5080606;28;45542;-75
2023/03/20 04:11:18;;;;;;;;;34.25;31.25;;;;;6.89;100.00;101718.91;5079991;28;46282;-74
2023/03/20 04:13:46;;;;;;;;;31.25;31.25;;;;;6.87;100.00;101719.03;5078752;28;46532;-74
2023/03/20 04:16:13;;;;;;;;;31.00;29.00;;;;;6.86;100.00;101719.16;5080182;28;45319;-75
2023/03/20 04:18:39;;;;;;;;;25.25;25.25;;;;;6.83;100.00;101722.91;5081156;27;45387;-75
2023/03/20 04:21:05;;;;;;;;;34.50;34.50;;;;;6.85;100.00;101725.41;5080136;28;46221;-75
2023/03/20 04:23:31;;;;;;;;;32.00;30.25;;;;;6.75;100.00;101712.94;5081378;27;45974;-74
2023/03/20 04:25:56;;;;;;;;;34.25;31.75;;;;;6.84;100.00;101732.50;5079525;28;45266;-75
2023/03/20 04:28:21;;;;;;;;;32.50;31.75;;;;;6.88;100.00;101728.63;5081233;28;45338;-75
2023/03/20 04:30:55;;;;;;;;;36.00;33.75;;;;;6.89;100.00;101732.94;5079821;28;47392;-74
2023/03/20 04:33:21;;;;;;;;;31.75;30.00;;;;;6.90;100.00;101736.44;5081221;27;45461;-75
2023/03/20 04:35:46;;;;;;;;;32.25;32.25;;;;;6.89;100.00;101738.22;5080886;27;45357;-75
2023/03/20 04:38:12;;;;;;;;;34.25;34.25;;;;;6.88;100.00;101751.59;5080056;28;45479;-75
2023/03/20 04:40:38;;;;;;;;;31.50;31.50;;;;;6.86;100.00;101754.34;5079676;28;47046;-75
2023/03/20 04:43:03;;;;;;;;;32.75;31.75;;;;;6.76;100.00;101746.31;5079751;28;47055;-75
2023/03/20 04:45:29;;;;;;;;;34.00;29.25;;;;;6.82;100.00;101747.63;5081412;27;45271;-75
2023/03/20 04:47:54;;;;;;;;;30.75;29.75;;;;;6.79;100.00;101750.50;5080948;28;45374;-75
2023/03/20 04:50:20;;;;;;;;;33.50;33.50;;;;;6.81;100.00;101745.94;5080920;28;45513;-75
2023/03/20 04:52:45;;;;;;;;;25.50;25.50;;;;;6.76;100.00;101737.56;5079796;28;47371;-75
2023/03/20 04:55:10;;;;;;;;;32.00;29.75;;;;;6.74;100.00;101734.19;5079128;28;45449;-75
2023/03/20 04:57:36;;;;;;;;;32.00;25.50;;;;;6.81;100.00;101740.66;5079957;28;45288;-75
2023/03/20 05:00:03;;;;;;;;;36.00;32.50;;;;;6.46;100.00;101679.16;5080569;27;45344;-74
2023/03/20 05:02:28;;;;;;;;;32.25;30.00;;;;;6.85;100.00;101741.28;5080695;27;46179;-75
2023/03/20 05:04:53;;;;;;;;;33.75;30.75;;;;;6.86;100.00;101735.88;5080285;27;45326;-75
2023/03/20 05:07:19;;;;;;;;;36.50;33.25;;;;;6.83;100.00;101728.19;5080782;27;45561;-75
2023/03/20 05:09:44;;;;;;;;;34.75;29.25;;;;;6.91;100.00;101744.22;5079748;28;45510;-75
2023/03/20 05:12:09;;;;;;;;;30.75;30.25;;;;;6.85;100.00;101726.22;5080565;27;45318;-75
2023/03/20 05:14:35;;;;;;;;;38.50;35.75;;;;;6.92;100.00;101732.69;5080589;27;45268;-75
2023/03/20 05:17:00;;;;;;;;;29.00;28.00;;;;;6.99;100.00;101740.97;5080801;28;45732;-75
2023/03/20 05:19:26;;;;;;;;;33.25;30.75;;;;;6.98;100.00;101741.09;5080370;28;45410;-75
2023/03/20 05:21:52;;;;;;;;;25.75;24.00;;;;;6.99;100.00;101738.31;5080443;28;45302;-75
2023/03/20 05:24:17;;;;;;;;;29.75;29.25;;;;;7.01;100.00;101730.28;5079482;27;45346;-74
2023/03/20 05:26:42;;;;;;;;;30.50;28.50;;;;;7.04;100.00;101730.03;5079322;28;45430;-74
2023/03/20 05:29:08;;;;;;;;;28.25;26.25;;;;;6.99;100.00;101725.13;5076255;28;51416;-74
2023/03/20 05:31:33;;;;;;;;;34.25;33.75;;;;;6.99;100.00;101724.25;5080146;28;52205;-75
2023/03/20 05:33:59;;;;;;;;;29.00;28.75;;;;;7.02;100.00;101722.22;5079567;27;52727;-74
2023/03/20 05:36:24;;;;;;;;;35.50;30.00;;;;;6.97;100.00;101721.75;5079202;28;45642;-75
2023/03/20 05:38:50;;;;;;;;;40.00;34.50;;;;;7.03;100.00;101730.97;5079769;28;45617;-75
2023/03/20 05:41:15;;;;;;;;;33.25;30.00;;;;;7.05;100.00;101729.03;5078646;28;47103;-74
2023/03/20 05:43:40;;;;;;;;;31.25;31.25;;;;;7.17;100.00;101732.47;5078486;28;45700;-75
2023/03/20 05:46:06;;;;;;;;;33.75;30.00;;;;;7.21;100.00;101718.03;5080245;28;45260;-75
2023/03/20 05:48:31;;;;;;;;;35.00;29.75;;;;;7.25;100.00;101721.28;5080293;27;45545;-75
2023/03/20 05:50:56;;;;;;;;;32.50;30.00;;;;;7.27;100.00;101717.53;5079702;27;46346;-75
2023/03/20 05:53:22;;;;;;;;;34.75;31.75;;;;;7.36;100.00;101736.25;5078248;28;49656;-75
2023/03/20 05:55:47;;;;;;;;;32.00;30.00;;;;;7.40;100.00;101729.72;5080093;27;45338;-75
2023/03/20 05:58:12;;;;;;;;;34.00;31.50;;;;;7.45;100.00;101736.31;5080009;27;45463;-74
2023/03/20 06:00:38;;;;;;;;;31.75;30.25;;;;;7.53;100.00;101727.72;5060957;28;47931;-75
2023/03/20 06:03:05;;;;;;;;;27.75;26.00;;;;;7.61;100.00;101731.53;5093433;27;45372;-76
2023/03/20 06:05:32;;;;;;;;;31.00;30.00;;;;;7.61;100.00;101724.44;5079741;28;45492;-76
2023/03/20 06:07:57;;;;;;;;;29.00;28.75;;;;;7.73;100.00;101734.94;5079142;28;45227;-76
2023/03/20 06:10:22;;;;;;;;;28.75;26.25;;;;;7.67;100.00;101725.72;5079434;27;46471;-76
2023/03/20 06:12:48;;;;;;;;;32.25;28.75;;;;;7.76;100.00;101738.19;5079573;28;45343;-75
2023/03/20 06:15:13;;;;;;;;;31.00;29.50;;;;;7.91;100.00;101749.25;5080089;27;45292;-75
2023/03/20 06:17:39;;;;;;;;;37.00;32.75;;;;;7.97;100.00;101742.59;5078104;28;46063;-74
2023/03/20 06:20:05;;;;;;;;;33.00;30.50;;;;;8.04;100.00;101743.75;5079539;28;46123;-74
2023/03/20 06:22:31;;;;;;;;;36.50;33.25;;;;;8.18;100.00;101745.19;5079346;28;45480;-74
2023/03/20 06:24:56;;;;;;;;;28.00;27.75;;;;;8.19;100.00;101746.88;5079115;28;45414;-75
2023/03/20 06:27:22;;;;;;;;;34.75;34.50;;;;;8.26;100.00;101735.75;5079568;28;45348;-76
2023/03/20 06:29:47;;;;;;;;;34.00;33.25;;;;;8.31;100.00;101733.50;5077439;28;47297;-76
2023/03/20 06:32:13;;;;;;;;;32.50;28.75;;;;;8.38;100.00;101736.47;5079310;28;45345;-76
2023/03/20 06:34:40;;;;;;;;;34.25;31.50;;;;;8.53;100.00;101742.22;5078838;27;45376;-76
2023/03/20 06:37:05;;;;;;;;;29.25;27.00;;;;;8.61;100.00;101745.06;5068704;28;45522;-76
2023/03/20 06:39:31;;;;;;;;;27.75;27.00;;;;;8.68;100.00;101754.13;5074691;28;45308;-78
2023/03/20 06:41:56;;;;;;;;;29.25;26.75;;;;;8.75;100.00;101758.88;5079074;28;45328;-76
2023/03/20 06:44:21;;;;;;;;;29.00;28.50;;;;;8.76;100.00;101742.84;5079273;28;45509;-76
2023/03/20 06:46:47;;;;;;;;;30.00;28.75;;;;;8.84;100.00;101761.53;5078573;28;45235;-76
2023/03/20 06:49:12;;;;;;;;;35.25;32.50;;;;;8.93;100.00;101773.16;5077244;28;60044;-76
2023/03/20 06:51:38;;;;;;;;;25.50;25.50;;;;;8.92;100.00;101763.50;5079279;27;45277;-75
2023/03/20 06:54:03;;;;;;;;;32.75;24.75;;;;;9.06;100.00;101769.38;5079121;27;45280;-75
2023/03/20 06:56:29;;;;;;;;;32.75;32.75;;;;;9.09;100.00;101758.50;5078419;27;45777;-75
2023/03/20 06:58:55;;;;;;;;;22.25;22.25;;;;;9.12;100.00;101755.56;5078970;28;45385;-76
2023/03/20 07:01:20;;;;;;;;;34.75;28.75;;;;;9.12;100.00;101754.72;5078530;28;50031;-75
2023/03/20 07:03:46;;;;;;;;;21.00;18.33;;;;;9.24;100.00;101758.91;5077636;28;45326;-75
2023/03/20 07:06:12;;;;;;;;;35.25;32.25;;;;;9.32;100.00;101758.22;5077647;28;47354;-75
2023/03/20 07:08:38;;;;;;;;;30.25;28.00;;;;;9.33;100.00;101757.25;5073753;27;45316;-75
2023/03/20 07:11:03;;;;;;;;;27.33;26.33;;;;;9.34;100.00;101753.63;5069919;28;45330;-75
2023/03/20 07:13:30;;;;;;;;;25.75;22.00;;;;;9.39;100.00;101758.47;5078905;27;45361;-75
2023/03/20 07:15:57;;;;;;;;;30.25;29.50;;;;;9.61;100.00;101767.97;5077091;27;46178;-75
2023/03/20 07:18:23;;;;;;;;;29.75;27.75;;;;;9.71;100.00;101759.97;5072373;27;46937;-75
2023/03/20 07:20:51;;;;;;;;;25.33;23.67;;;;;9.66;100.00;101768.38;5072336;28;45284;-76
2023/03/20 07:23:17;;;;;;;;;21.00;20.33;;;;;9.89;100.00;101767.19;5075979;27;45433;-75
2023/03/20 07:25:42;;;;;;;;;19.67;19.67;;;;;9.91;100.00;101771.38;5068499;28;45317;-76
2023/03/20 07:28:07;;;;;;;;;28.67;26.00;;;;;10.03;100.00;101771.22;5077853;28;45365;-76
2023/03/20 07:30:33;;;;;;;;;24.00;21.33;;;;;10.03;100.00;101769.38;5078569;27;45363;-75
2023/03/20 07:32:58;;;;;;;;;24.00;23.75;;;;;9.98;100.00;101767.19;5078386;28;45475;-76
2023/03/20 07:35:23;;;;;;;;;21.67;20.00;;;;;10.03;100.00;101776.53;5076892;28;45817;-76
2023/03/20 07:37:49;;;;;;;;;24.67;24.33;;;;;10.14;100.00;101775.53;5076423;28;49821;-77
2023/03/20 07:40:15;;;;;;;;;18.00;17.00;;;;;10.20;100.00;101770.44;5078474;28;45307;-76
2023/03/20 07:42:40;;;;;;;;;22.00;22.00;;;;;10.26;100.00;101773.50;5078540;27;45567;-76
2023/03/20 07:45:08;;;;;;;;;26.33;22.33;;;;;10.52;100.00;101783.47;5078417;27;45393;-76
2023/03/20 07:47:34;;;;;;;;;25.33;22.67;;;;;10.63;100.00;101771.81;5079871;27;45507;-75
2023/03/20 07:50:00;;;;;;;;;23.00;22.00;;;;;10.81;100.00;101780.63;5081913;27;45361;-76
2023/03/20 07:52:25;;;;;;;;;25.00;23.00;;;;;11.11;100.00;101775.13;5081707;27;45783;-76
2023/03/20 07:54:50;;;;;;;;;24.67;23.67;;;;;11.19;100.00;101756.56;5081770;27;45247;-76
2023/03/20 07:57:17;;;;;;;;;18.75;16.00;;;;;11.39;100.00;101777.69;5067838;27;53373;-76
2023/03/20 07:59:42;;;;;;;;;25.33;23.67;;;;;11.53;100.00;101767.47;5082093;28;45335;-76
2023/03/20 08:02:14;;;;;;;;;20.67;19.67;;;;;11.66;100.00;101767.88;5080632;28;45552;-76
2023/03/20 08:04:40;;;;;;;;;20.00;20.00;;;;;11.75;100.00;101766.09;5080298;28;47059;-76
2023/03/20 08:07:05;;;;;;;;;24.00;21.33;;;;;11.78;100.00;101762.28;5080164;27;46070;-75
2023/03/20 08:09:30;;;;;;;;;21.67;19.00;;;;;11.83;100.00;101765.34;5079469;27;45408;-77
2023/03/20 08:11:56;;;;;;;;;20.67;17.67;;;;;12.06;100.00;101762.13;5078038;27;45415;-75
2023/03/20 08:14:21;;;;;;;;;21.00;20.33;;;;;12.07;100.00;101761.16;5081608;27;48818;-78
2023/03/20 08:16:46;;;;;;;;;19.00;17.00;;;;;12.14;100.00;101750.69;5076510;28;58075;-77
2023/03/20 08:19:12;;;;;;;;;20.67;19.00;;;;;12.28;100.00;101747.44;5074791;28;45346;-76
2023/03/20 08:21:37;;;;;;;;;18.00;18.00;;;;;12.45;100.00;101764.31;5081243;27;45237;-76
2023/03/20 08:24:03;;;;;;;;;17.33;16.33;;;;;12.52;100.00;101761.00;5079986;28;47216;-76
2023/03/20 08:26:28;;;;;;;;;19.33;18.67;;;;;12.64;100.00;101765.03;5069306;28;45417;-76
2023/03/20 08:28:54;;;;;;;;;22.33;20.67;;;;;12.74;100.00;101759.53;5068002;27;45290;-76
2023/03/20 08:31:19;;;;;;;;;18.33;18.33;;;;;12.77;100.00;101769.88;5081429;27;45323;-77
2023/03/20 08:33:45;;;;;;;;;20.33;19.67;;;;;12.85;100.00;101767.25;5081043;27;45347;-77
2023/03/20 08:36:11;;;;;;;;;21.00;19.33;;;;;12.99;100.00;101765.75;5080705;27;45916;-77
2023/03/20 08:38:36;;;;;;;;;17.33;17.33;;;;;13.27;100.00;101775.28;5076350;27;45356;-77
2023/03/20 08:41:02;;;;;;;;;20.00;18.00;;;;;13.28;100.00;101766.28;5079719;27;45871;-77
2023/03/20 08:43:27;;;;;;;;;22.33;22.33;;;;;13.35;100.00;101772.59;5077438;28;46045;-77
2023/03/20 08:45:53;;;;;;;;;22.00;22.00;;;;;13.42;100.00;101772.78;5066163;28;48423;-77
2023/03/20 08:48:18;;;;;;;;;19.67;18.67;;;;;13.44;100.00;101773.44;5078284;28;45422;-77
2023/03/20 08:50:43;;;;;;;;;21.67;21.00;;;;;13.54;100.00;101777.81;5080434;28;45317;-76
2023/03/20 08:53:09;;;;;;;;;17.00;16.00;;;;;13.58;99.45;101790.66;5080706;27;45566;-76
2023/03/20 08:55:35;;;;;;;;;19.33;19.33;;;;;13.68;100.00;101784.31;5080634;27;45414;-75
2023/03/20 08:58:00;;;;;;;;;17.67;17.33;;;;;13.68;98.64;101784.31;5080642;27;45347;-76
2023/03/20 09:00:26;;;;;;;;;17.67;17.67;;;;;13.73;98.22;101774.78;5080370;28;45398;-75
2023/03/20 09:02:52;;;;;;;;;18.33;17.67;;;;;13.80;98.65;101787.47;5080831;28;45335;-76
2023/03/20 09:05:17;;;;;;;;;16.00;15.00;;;;;13.87;98.10;101786.63;5074393;27;45299;-76
2023/03/20 09:07:43;;;;;;;;;20.00;18.67;;;;;13.87;96.98;101781.28;5074031;28;45342;-76
2023/03/20 09:10:10;;;;;;;;;18.67;17.00;;;;;13.91;96.74;101776.41;5076889;27;45425;-75
2023/03/20 09:12:36;;;;;;;;;17.00;15.67;;;;;14.07;96.71;101780.03;5072743;28;46591;-76
2023/03/20 09:15:03;;;;;;;;;16.33;15.67;;;;;13.99;96.02;101789.75;5081073;27;45445;-76
2023/03/20 09:17:30;;;;;;;;;15.67;15.67;;;;;14.00;96.31;101783.41;5080899;27;45267;-76
2023/03/20 09:19:56;;;;;;;;;16.67;16.00;;;;;14.09;97.46;101778.00;5080340;27;45312;-76
2023/03/20 09:22:21;;;;;;;;;18.33;17.67;;;;;14.25;95.15;101772.59;5080516;27;45472;-76
2023/03/20 09:24:46;;;;;;;;;17.00;15.67;;;;;14.26;96.34;101770.78;5078604;28;46925;-76
2023/03/20 09:27:15;;;;;;;;;16.33;14.67;;;;;14.32;96.42;101771.91;5080500;27;45500;-76
2023/03/20 09:29:41;;;;;;;;;16.67;16.33;;;;;14.43;95.44;101768.88;5075549;27;45476;-76
2023/03/20 09:32:08;;;;;;;;;19.67;19.00;;;;;14.51;95.12;101774.16;5072231;28;45291;-76
2023/03/20 09:34:34;;;;;;;;;14.00;14.00;;;;;14.52;93.95;101757.09;5080068;27;45298;-76
2023/03/20 09:37:01;;;;;;;;;18.00;15.67;;;;;14.62;94.47;101766.75;5080263;28;45345;-76
2023/03/20 09:39:27;;;;;;;;;16.00;16.00;;;;;14.69;93.92;101756.19;5074862;27;45417;-76
2023/03/20 09:41:53;;;;;;;;;17.67;16.67;;;;;14.78;94.34;101747.13;5072001;28;45346;-76
2023/03/20 09:44:37;;;;;;;;;14.67;14.33;;;;;14.91;94.09;101753.72;5079835;27;45878;-76
2023/03/20 09:47:26;;;;;;;;;15.00;13.67;;;;;14.97;93.95;101759.19;5078367;28;45388;-76
2023/03/20 09:50:11;;;;;;;;;16.00;15.00;;;;;15.09;93.37;101766.81;5079228;27;45482;-77
2023/03/20 09:52:48;;;;;;;;;12.67;12.67;;;;;15.01;91.96;101755.16;5076269;27;46371;-77
2023/03/20 09:55:18;;;;;;;;;12.33;12.00;;;;;15.09;93.11;101756.91;5079858;27;45350;-76
2023/03/20 09:57:50;;;;;;;;;12.33;12.00;;;;;15.16;91.33;101751.69;5079825;27;45283;-76
2023/03/20 10:00:23;;;;;;;;;14.67;12.00;;;;;15.39;91.88;101748.16;5079875;27;45364;-77
2023/03/20 10:02:55;;;;;;;;;10.67;10.33;;;;;15.52;89.73;101748.38;5071579;27;45279;-76
2023/03/20 10:05:27;;;;;;;;;10.33;8.67;;;;;15.64;91.49;101754.09;5075195;28;47176;-77
2023/03/20 10:07:56;;;;;;;;;9.00;9.00;;;;;15.76;89.69;101741.06;5075310;28;45363;-77
2023/03/20 10:10:34;;;;;;;;;12.67;12.00;;;;;15.91;89.80;101756.31;5079988;27;45330;-76
2023/03/20 10:13:11;;;;;;;;;10.00;9.67;;;;;16.05;88.39;101754.69;5079607;27;45406;-76
2023/03/20 10:15:48;;;;;;;;;6.33;6.33;;;;;16.04;87.31;101736.91;5079412;28;45357;-77
2023/03/20 10:18:28;;;;;;;;;7.67;7.33;;;;;16.16;86.88;101739.97;5079693;27;45327;-76
2023/03/20 10:21:17;;;;;;;;;9.00;7.67;;;;;16.31;85.70;101739.13;5079463;27;45358;-76
2023/03/20 10:23:55;;;;;;;;;8.67;8.00;;;;;16.39;85.29;101745.22;5078354;28;45512;-76
2023/03/20 10:26:23;;;;;;;;;7.33;7.33;;;;;16.41;85.12;101729.72;5079166;27;46354;-77
2023/03/20 10:28:57;;;;;;;;;8.00;6.67;;;;;16.55;84.33;101726.38;5079443;27;45425;-76
2023/03/20 10:31:50;;;;;;;;;10.00;8.33;;;;;16.69;85.58;101732.69;5076982;28;45365;-76
2023/03/20 10:34:47;;;;;;;;;8.67;7.00;;;;;16.79;84.38;101725.16;5079272;28;45516;-76
2023/03/20 10:37:21;;;;;;;;;9.33;7.00;;;;;16.94;83.84;101729.66;5066113;28;45432;-77
2023/03/20 10:40:08;;;;;;;;;8.00;7.00;;;;;17.15;83.79;101731.53;5065654;28;45277;-76
2023/03/20 10:42:39;;;;;;;;;7.00;5.00;;;;;17.15;78.75;101724.28;5079741;27;45364;-76
2023/03/20 10:45:17;;;;;;;;;5.00;5.00;;;;;17.24;78.01;101722.28;5078861;27;45312;-76
2023/03/20 10:47:47;;;;;;;;;5.00;5.00;;;;;17.24;78.11;101716.09;5078853;28;45154;-76
2023/03/20 10:50:18;;;;;;;;;5.67;4.67;;;;;17.34;78.53;101718.41;5079158;28;45488;-77
2023/03/20 10:52:48;;;;;;;;;5.00;5.00;;;;;17.31;77.63;101725.03;5078914;27;45236;-79
2023/03/20 10:55:28;;;;;;;;;5.00;5.00;;;;;17.24;76.31;101722.28;5074770;28;46219;-77
2023/03/20 10:58:18;;;;;;;;;4.00;4.00;;;;;17.23;76.93;101723.31;5079314;27;45231;-78
2023/03/20 11:00:43;;;;;;;;;5.67;5.67;;;;;17.29;75.29;101717.16;5078976;28;45415;-77
2023/03/20 11:03:20;;;;;;;;;8.67;8.67;;;;;17.31;73.49;101710.75;5079303;28;45429;-77
2023/03/20 11:05:50;;;;;;;;;8.00;8.00;;;;;17.32;72.99;101712.41;5078744;27;45321;-78
2023/03/20 11:08:15;;;;;;;;;10.00;8.33;;;;;17.26;72.45;101712.19;5094407;27;47404;-76
2023/03/20 11:10:42;;;;;;;;;9.00;7.00;;;;;17.29;73.03;101706.41;5079217;27;45500;-76
2023/03/20 11:13:23;;;;;;;;;10.00;9.33;;;;;17.38;70.66;101704.41;5077009;28;45529;-77
2023/03/20 11:15:51;;;;;;;;;9.67;9.67;;;;;17.44;72.70;101697.41;5078580;27;45244;-77
2023/03/20 11:18:16;;;;;;;;;14.33;12.33;;;;;17.53;73.60;101692.69;5078234;27;46150;-80
2023/03/20 11:20:54;;;;;;;;;11.33;10.00;;;;;17.69;72.39;101698.81;5074190;28;56672;-80